createdAt,value
2022-12-28T00:01:17.056Z,12.20
2022-12-28T00:03:44.507Z,12.77
2022-12-28T00:06:11.983Z,14.33
2022-12-28T00:08:39.461Z,11.23
2022-12-28T00:11:12.293Z,16.77
2022-12-28T00:13:47.096Z,10.23
2022-12-28T00:16:22.394Z,18.73
2022-12-28T00:21:23.355Z,16.20
2022-12-28T00:23:53.344Z,16.48
2022-12-28T00:26:24.854Z,18.17
2022-12-28T00:28:55.567Z,15.83
2022-12-28T00:31:27.335Z,16.88
2022-12-28T00:33:55.030Z,14.00
2022-12-28T00:36:22.749Z,15.43
2022-12-28T00:38:50.201Z,20.33
2022-12-28T00:41:18.038Z,14.57
2022-12-28T00:43:46.507Z,13.47
2022-12-28T00:46:14.185Z,14.93
2022-12-28T00:48:41.804Z,13.53
2022-12-28T00:51:13.602Z,12.70
2022-12-28T00:53:41.257Z,15.90
2022-12-28T00:56:10.271Z,13.97
2022-12-28T00:58:37.682Z,15.37
2022-12-28T01:01:05.527Z,18.17
2022-12-28T01:03:33.123Z,17.80
2022-12-28T01:06:00.533Z,18.37
2022-12-28T01:08:27.925Z,12.13
2022-12-28T01:10:55.363Z,11.70
2022-12-28T01:13:22.843Z,12.77
2022-12-28T01:15:50.240Z,14.23
2022-12-28T01:18:17.687Z,13.80
2022-12-28T01:20:45.379Z,14.23
2022-12-28T01:23:12.829Z,13.77
2022-12-28T01:25:40.191Z,12.23
2022-12-28T01:28:07.578Z,17.50
2022-12-28T01:30:35.040Z,13.60
2022-12-28T01:33:06.621Z,13.40
2022-12-28T01:35:34.038Z,15.87
2022-12-28T01:38:01.409Z,19.07
2022-12-28T01:40:28.931Z,15.43
2022-12-28T01:42:56.559Z,17.97
2022-12-28T01:45:27.209Z,13.23
2022-12-28T01:47:55.771Z,17.00
2022-12-28T01:50:26.673Z,15.73
2022-12-28T01:52:58.505Z,19.57
2022-12-28T01:55:28.556Z,15.07
2022-12-28T01:58:15.942Z,31.67
2022-12-28T02:00:43.397Z,14.00
2022-12-28T02:03:14.888Z,20.50
2022-12-28T02:05:44.642Z,12.30
2022-12-28T02:08:30.525Z,27.47
2022-12-28T02:13:27.136Z,19.87
2022-12-28T02:15:54.559Z,20.20
2022-12-28T02:18:23.068Z,17.23
2022-12-28T02:21:10.342Z,17.00
2022-12-28T02:23:57.572Z,18.13
2022-12-28T02:26:44.942Z,14.80
2022-12-28T02:29:32.222Z,18.10
2022-12-28T02:32:19.850Z,21.60
2022-12-28T02:35:00.802Z,23.23
2022-12-28T02:37:33.148Z,21.67
2022-12-28T02:40:04.533Z,20.90
2022-12-28T02:42:32.639Z,24.43
2022-12-28T02:45:19.924Z,21.50
2022-12-28T02:48:07.349Z,22.00
2022-12-28T02:50:45.768Z,21.80
2022-12-28T02:53:23.216Z,20.80
2022-12-28T02:56:08.048Z,18.87
2022-12-28T02:58:55.330Z,19.73
2022-12-28T03:01:42.743Z,22.73
2022-12-28T03:04:30.043Z,20.87
2022-12-28T03:07:37.120Z,21.73
2022-12-28T03:10:24.374Z,21.43
2022-12-28T03:12:57.446Z,26.40
2022-12-28T03:15:35.131Z,25.73
2022-12-28T03:18:26.119Z,24.17
2022-12-28T03:21:15.348Z,26.13
2022-12-28T03:24:03.832Z,26.33
2022-12-28T03:26:54.029Z,17.90
2022-12-28T03:29:42.611Z,19.13
2022-12-28T03:32:10.847Z,28.40
2022-12-28T03:34:38.479Z,21.37
2022-12-28T03:37:18.017Z,22.27
2022-12-28T03:39:52.143Z,17.97
2022-12-28T03:43:02.385Z,24.53
2022-12-28T03:45:45.948Z,20.37
2022-12-28T03:48:15.996Z,20.10
2022-12-28T03:50:46.113Z,22.30
2022-12-28T03:53:13.896Z,26.87
2022-12-28T03:55:43.350Z,28.63
2022-12-28T03:58:10.784Z,15.43
2022-12-28T04:00:38.202Z,21.97
2022-12-28T04:03:05.671Z,14.20
2022-12-28T04:05:33.236Z,19.93
2022-12-28T04:08:00.575Z,16.57
2022-12-28T04:10:27.993Z,17.73
2022-12-28T04:12:56.811Z,18.43
2022-12-28T04:15:24.223Z,12.73
2022-12-28T04:17:51.824Z,18.83
2022-12-28T04:20:19.168Z,15.17
2022-12-28T04:22:47.125Z,16.47
2022-12-28T04:25:14.563Z,16.23
2022-12-28T04:27:42.120Z,12.80
2022-12-28T04:30:10.064Z,14.13
2022-12-28T04:32:37.587Z,20.53
2022-12-28T04:35:05.361Z,14.43
2022-12-28T04:37:32.911Z,20.47
2022-12-28T04:40:00.380Z,15.37
2022-12-28T04:42:27.893Z,18.23
2022-12-28T04:44:55.456Z,19.13
2022-12-28T04:47:22.861Z,13.20
2022-12-28T04:49:50.617Z,18.77
2022-12-28T04:52:18.231Z,14.57
2022-12-28T04:54:45.615Z,18.80
2022-12-28T04:57:13.350Z,17.00
2022-12-28T04:59:40.971Z,18.30
2022-12-28T05:02:08.722Z,22.40
2022-12-28T05:04:36.342Z,18.83
2022-12-28T05:07:03.871Z,21.73
2022-12-28T05:09:31.351Z,18.70
2022-12-28T05:11:58.810Z,22.63
2022-12-28T05:14:26.210Z,18.47
2022-12-28T05:16:53.801Z,19.47
2022-12-28T05:19:21.271Z,19.70
2022-12-28T05:21:48.732Z,18.63
2022-12-28T05:24:16.248Z,18.10
2022-12-28T05:26:43.829Z,20.33
2022-12-28T05:29:11.209Z,14.43
2022-12-28T05:31:38.608Z,18.50
2022-12-28T05:34:06.048Z,20.77
2022-12-28T05:36:36.871Z,19.47
2022-12-28T05:39:04.703Z,22.43
2022-12-28T05:41:32.295Z,27.63
2022-12-28T05:44:00.427Z,20.73
2022-12-28T05:46:29.516Z,21.67
2022-12-28T05:48:57.054Z,16.63
2022-12-28T05:51:25.761Z,23.43
2022-12-28T05:53:53.190Z,20.67
2022-12-28T05:56:21.847Z,20.90
2022-12-28T05:58:53.670Z,24.77
2022-12-28T06:01:22.027Z,22.40
2022-12-28T06:03:53.062Z,22.83
2022-12-28T06:06:20.724Z,24.47
2022-12-28T06:08:49.241Z,24.27
2022-12-28T06:11:17.800Z,23.83
2022-12-28T06:13:45.326Z,27.53
2022-12-28T06:16:15.347Z,28.37
2022-12-28T06:18:43.636Z,27.37
2022-12-28T06:21:13.323Z,34.07
2022-12-28T06:23:41.096Z,34.37
2022-12-28T06:26:09.758Z,33.40
2022-12-28T06:28:38.216Z,29.03
2022-12-28T06:31:07.065Z,30.47
2022-12-28T06:33:34.532Z,29.17
2022-12-28T06:36:02.060Z,34.60
2022-12-28T06:38:32.654Z,27.17
2022-12-28T06:41:19.634Z,28.87
2022-12-28T06:43:47.598Z,30.33
2022-12-28T06:46:15.568Z,33.80
2022-12-28T06:48:43.257Z,28.20
2022-12-28T06:51:15.253Z,30.80
2022-12-28T06:53:43.119Z,28.87
2022-12-28T06:56:31.625Z,34.90
2022-12-28T06:59:03.295Z,32.57
2022-12-28T07:01:33.322Z,23.93
2022-12-28T07:04:01.602Z,31.27
2022-12-28T07:06:29.688Z,31.20
2022-12-28T07:09:01.478Z,32.93
2022-12-28T07:11:29.264Z,35.13
2022-12-28T07:13:56.989Z,29.87
2022-12-28T07:16:25.481Z,30.10
2022-12-28T07:18:53.031Z,33.57
2022-12-28T07:21:21.972Z,30.63
2022-12-28T07:23:50.065Z,32.80
2022-12-28T07:26:20.585Z,32.40
2022-12-28T07:28:48.639Z,29.57
2022-12-28T07:31:17.480Z,27.70
2022-12-28T07:33:45.642Z,28.63
2022-12-28T07:36:14.265Z,31.47
2022-12-28T07:38:42.301Z,28.30
2022-12-28T07:41:11.653Z,35.27
2022-12-28T07:43:39.097Z,29.23
2022-12-28T07:46:07.859Z,30.27
2022-12-28T07:48:36.369Z,28.90
2022-12-28T07:51:23.770Z,32.17
2022-12-28T07:53:51.901Z,30.10
2022-12-28T07:56:20.026Z,24.87
2022-12-28T08:01:17.403Z,22.57
2022-12-28T08:03:45.065Z,34.37
2022-12-28T08:06:15.081Z,31.37
2022-12-28T08:08:43.522Z,29.83
2022-12-28T08:11:12.381Z,28.47
2022-12-28T08:13:41.023Z,31.40
2022-12-28T08:16:09.408Z,31.80
2022-12-28T08:18:36.942Z,24.37
2022-12-28T08:21:05.761Z,31.77
2022-12-28T08:23:33.789Z,33.50
2022-12-28T08:26:18.324Z,30.97
2022-12-28T08:28:46.864Z,30.67
2022-12-28T08:31:17.063Z,30.00
2022-12-28T08:33:44.618Z,29.80
2022-12-28T08:36:12.157Z,29.50
2022-12-28T08:38:40.812Z,30.53
2022-12-28T08:41:09.103Z,33.90
2022-12-28T08:43:36.482Z,34.03
2022-12-28T08:46:21.007Z,24.77
2022-12-28T08:48:49.233Z,30.80
2022-12-28T08:51:36.521Z,32.43
2022-12-28T08:54:04.335Z,34.80
2022-12-28T08:56:33.228Z,27.27
2022-12-28T08:59:01.403Z,30.67
2022-12-28T09:01:30.484Z,29.27
2022-12-28T09:03:59.353Z,28.57
2022-12-28T09:06:28.037Z,33.13
2022-12-28T09:09:05.377Z,33.03
2022-12-28T09:11:34.792Z,27.73
2022-12-28T09:14:02.693Z,26.73
2022-12-28T09:16:30.257Z,35.67
2022-12-28T09:18:58.820Z,28.53
2022-12-28T09:21:27.595Z,28.30
2022-12-28T09:23:55.382Z,31.97
2022-12-28T09:26:23.842Z,108.20
2022-12-28T09:28:53.075Z,37.00
2022-12-28T09:31:21.797Z,26.90
2022-12-28T09:36:53.043Z,37.77
2022-12-28T09:39:23.554Z,33.20
2022-12-28T09:42:10.883Z,31.13
2022-12-28T09:44:58.459Z,31.00
2022-12-28T09:47:29.271Z,26.63
2022-12-28T09:50:17.706Z,30.60
2022-12-28T09:53:14.053Z,29.57
2022-12-28T09:55:52.395Z,33.57
2022-12-28T09:58:20.547Z,30.20
2022-12-28T10:00:50.033Z,28.40
2022-12-28T10:03:23.177Z,30.27
2022-12-28T10:05:53.155Z,28.03
2022-12-28T10:08:22.591Z,35.07
2022-12-28T10:10:51.128Z,29.00
2022-12-28T10:16:17.045Z,33.67
2022-12-28T10:18:50.919Z,28.47
2022-12-28T10:21:21.697Z,28.55
2022-12-28T10:26:41.842Z,32.77
2022-12-28T10:29:14.372Z,29.90
2022-12-28T10:31:43.624Z,31.33
2022-12-28T10:34:23.072Z,28.67
2022-12-28T10:36:51.546Z,26.47
2022-12-28T10:39:22.912Z,30.50
2022-12-28T10:41:51.004Z,34.23
2022-12-28T10:47:18.110Z,32.67
2022-12-28T10:50:10.491Z,27.60
2022-12-28T10:52:38.542Z,25.73
2022-12-28T10:55:25.869Z,27.17
2022-12-28T10:58:27.431Z,27.13
2022-12-28T11:00:41.002Z,24.43
2022-12-28T11:03:28.562Z,29.60
2022-12-28T11:06:16.139Z,27.47
2022-12-28T11:08:46.162Z,22.30
2022-12-28T11:11:22.481Z,21.80
2022-12-28T11:13:52.337Z,23.63
2022-12-28T11:16:19.938Z,19.27
2022-12-28T11:18:47.810Z,21.60
2022-12-28T11:21:19.510Z,18.83
2022-12-28T11:23:47.942Z,22.17
2022-12-28T11:26:15.572Z,24.10
2022-12-28T11:28:45.878Z,20.47
2022-12-28T11:31:19.178Z,19.00
2022-12-28T11:33:50.132Z,15.13
2022-12-28T11:36:19.870Z,18.67
2022-12-28T11:38:48.787Z,17.93
2022-12-28T11:41:36.301Z,19.10
2022-12-28T11:44:05.133Z,17.83
2022-12-28T11:46:53.189Z,21.97
2022-12-28T11:49:26.841Z,15.77
2022-12-28T11:52:14.150Z,18.83
2022-12-28T11:54:58.548Z,19.70
2022-12-28T11:57:43.653Z,14.70
2022-12-28T12:00:30.962Z,16.55
2022-12-28T12:03:02.916Z,17.17
2022-12-28T12:05:50.356Z,17.67
2022-12-28T12:08:37.647Z,20.57
2022-12-28T12:11:22.425Z,18.63
2022-12-28T12:13:50.685Z,13.17
2022-12-28T12:16:37.899Z,16.20
2022-12-28T12:19:07.572Z,16.83
2022-12-28T12:21:38.357Z,21.03
2022-12-28T12:24:27.009Z,18.80
2022-12-28T12:26:58.777Z,17.87
2022-12-28T12:29:38.519Z,15.90
2022-12-28T12:32:11.118Z,15.10
2022-12-28T12:34:58.414Z,14.13
2022-12-28T12:37:45.788Z,16.47
2022-12-28T12:40:33.040Z,13.83
2022-12-28T12:43:20.603Z,19.50
2022-12-28T12:46:08.148Z,16.20
2022-12-28T12:48:55.606Z,17.60
2022-12-28T12:51:42.989Z,16.27
2022-12-28T12:54:20.495Z,13.90
2022-12-28T12:56:52.885Z,13.87
2022-12-28T12:59:40.253Z,13.77
2022-12-28T13:02:27.731Z,17.40
2022-12-28T13:04:55.269Z,17.67
2022-12-28T13:07:24.818Z,13.03
2022-12-28T13:09:54.119Z,19.60
2022-12-28T13:12:21.810Z,14.73
2022-12-28T13:14:52.045Z,17.90
2022-12-28T13:17:21.602Z,20.53
2022-12-28T13:19:49.203Z,16.60
2022-12-28T13:22:33.969Z,16.67
2022-12-28T13:25:01.484Z,20.43
2022-12-28T13:27:32.844Z,18.03
2022-12-28T13:30:01.469Z,15.37
2022-12-28T13:32:37.509Z,16.77
2022-12-28T13:35:16.966Z,15.33
2022-12-28T13:37:44.433Z,12.60
2022-12-28T13:40:12.918Z,15.87
2022-12-28T13:42:55.359Z,17.90
2022-12-28T13:45:23.185Z,14.37
2022-12-28T13:47:52.309Z,17.03
2022-12-28T13:50:25.235Z,14.23
2022-12-28T13:53:12.573Z,17.00
2022-12-28T13:56:00.792Z,15.10
2022-12-28T13:58:31.758Z,16.40
2022-12-28T14:01:00.805Z,14.03
2022-12-28T14:03:32.202Z,14.70
2022-12-28T14:06:04.057Z,14.32
2022-12-28T14:08:34.941Z,14.67
2022-12-28T14:11:03.203Z,16.43
2022-12-28T14:13:32.364Z,12.73
2022-12-28T14:16:00.217Z,12.60
2022-12-28T14:18:30.213Z,15.17
2022-12-28T14:20:59.410Z,16.20
2022-12-28T14:23:29.105Z,16.70
2022-12-28T14:25:58.740Z,17.10
2022-12-28T14:28:45.971Z,17.77
2022-12-28T14:31:14.612Z,15.47
2022-12-28T14:33:50.495Z,15.83
2022-12-28T14:36:20.459Z,14.47
2022-12-28T14:38:49.744Z,20.00
2022-12-28T14:41:20.513Z,15.30
2022-12-28T14:43:56.985Z,21.57
2022-12-28T14:47:15.766Z,15.10
2022-12-28T14:49:47.535Z,15.73
2022-12-28T14:52:34.964Z,15.63
2022-12-28T14:55:06.492Z,15.33
2022-12-28T14:57:37.005Z,15.97
2022-12-28T15:00:08.028Z,16.27
2022-12-28T15:02:55.363Z,16.77
2022-12-28T15:05:43.045Z,22.03
2022-12-28T15:08:11.196Z,17.37
2022-12-28T15:10:42.147Z,22.77
2022-12-28T15:13:09.807Z,18.07
2022-12-28T15:15:37.541Z,15.80
2022-12-28T15:18:05.219Z,21.63
2022-12-28T15:20:32.777Z,23.93
2022-12-28T15:23:00.280Z,21.87
2022-12-28T15:25:27.901Z,24.13
2022-12-28T15:27:55.418Z,18.07
2022-12-28T15:30:28.836Z,14.63
2022-12-28T15:32:56.747Z,16.67
2022-12-28T15:35:24.165Z,21.17
2022-12-28T15:37:51.621Z,21.37
2022-12-28T15:40:19.049Z,20.80
2022-12-28T15:42:46.536Z,22.57
2022-12-28T15:45:14.304Z,18.30
2022-12-28T15:47:41.630Z,20.53
2022-12-28T15:50:09.534Z,18.93
2022-12-28T15:52:36.983Z,20.27
2022-12-28T15:55:04.422Z,18.07
2022-12-28T15:57:32.049Z,20.33
2022-12-28T15:59:59.444Z,21.60
2022-12-28T16:02:27.155Z,16.63
2022-12-28T16:04:56.089Z,21.83
2022-12-28T16:07:24.170Z,19.80
2022-12-28T16:09:52.043Z,17.93
2022-12-28T16:12:19.517Z,20.87
2022-12-28T16:14:47.556Z,17.53
2022-12-28T16:17:15.260Z,19.47
2022-12-28T16:19:42.704Z,17.70
2022-12-28T16:22:10.148Z,15.97
2022-12-28T16:24:37.572Z,21.33
2022-12-28T16:27:05.063Z,18.50
2022-12-28T16:29:32.764Z,19.37
2022-12-28T16:32:00.967Z,16.13
2022-12-28T16:34:28.840Z,14.80
2022-12-28T16:36:59.470Z,15.27
2022-12-28T16:39:28.485Z,19.03
2022-12-28T16:41:55.973Z,20.00
2022-12-28T16:44:24.891Z,17.23
2022-12-28T16:46:54.953Z,17.30
2022-12-28T16:49:22.859Z,19.00
2022-12-28T16:51:50.733Z,22.33
2022-12-28T16:54:19.511Z,17.60
2022-12-28T16:56:47.377Z,16.57
2022-12-28T16:59:16.969Z,16.90
2022-12-28T17:01:45.285Z,21.23
2022-12-28T17:04:13.072Z,17.17
2022-12-28T17:06:41.545Z,16.03
2022-12-28T17:09:09.335Z,20.90
2022-12-28T17:11:36.844Z,20.17
2022-12-28T17:14:06.529Z,19.20
2022-12-28T17:16:34.430Z,17.93
2022-12-28T17:19:01.848Z,19.47
2022-12-28T17:21:29.944Z,17.93
2022-12-28T17:23:57.843Z,18.87
2022-12-28T17:26:25.745Z,18.57
2022-12-28T17:28:53.331Z,17.50
2022-12-28T17:31:21.741Z,18.60
2022-12-28T17:33:50.825Z,17.83
2022-12-28T17:36:19.165Z,20.73
2022-12-28T17:38:46.552Z,19.67
2022-12-28T17:41:15.988Z,15.87
2022-12-28T17:43:59.488Z,18.83
2022-12-28T17:46:28.455Z,19.30
2022-12-28T17:48:56.707Z,19.33
2022-12-28T17:51:25.628Z,18.73
2022-12-28T17:53:54.509Z,19.13
2022-12-28T17:56:22.069Z,17.50
2022-12-28T17:58:49.829Z,17.90
2022-12-28T18:01:17.556Z,16.73
2022-12-28T18:03:45.534Z,17.33
2022-12-28T18:06:13.068Z,18.57
2022-12-28T18:08:40.503Z,14.67
2022-12-28T18:11:09.035Z,15.17
2022-12-28T18:13:36.639Z,17.90
2022-12-28T18:16:05.044Z,15.07
2022-12-28T18:18:32.499Z,15.87
2022-12-28T18:21:00.919Z,17.97
2022-12-28T18:23:29.091Z,16.67
2022-12-28T18:26:14.118Z,19.20
2022-12-28T18:28:41.609Z,19.90
2022-12-28T18:31:09.468Z,18.43
2022-12-28T18:33:37.122Z,16.40
2022-12-28T18:36:05.827Z,16.87
2022-12-28T18:38:33.882Z,16.17
2022-12-28T18:41:01.494Z,16.73
2022-12-28T18:43:29.209Z,17.47
2022-12-28T18:45:59.011Z,14.23
2022-12-28T18:48:26.998Z,15.17
2022-12-28T18:56:25.433Z,20.30
2022-12-28T18:58:54.175Z,21.80
2022-12-28T19:02:05.222Z,18.20
2022-12-28T19:04:11.626Z,19.00
2022-12-28T19:06:39.481Z,16.60
2022-12-28T19:09:07.168Z,14.03
2022-12-28T19:11:34.879Z,14.47
2022-12-28T19:14:03.243Z,14.00
2022-12-28T19:16:32.035Z,14.73
2022-12-28T19:19:00.466Z,12.67
2022-12-28T19:21:30.308Z,14.60
2022-12-28T19:23:59.013Z,13.20
2022-12-28T19:26:26.461Z,15.13
2022-12-28T19:28:54.089Z,15.90
2022-12-28T19:31:21.737Z,13.50
2022-12-28T19:33:49.241Z,13.40
2022-12-28T19:36:17.164Z,11.40
2022-12-28T19:38:44.653Z,14.83
2022-12-28T19:41:13.973Z,14.23
2022-12-28T19:43:41.869Z,12.87
2022-12-28T19:46:12.662Z,13.70
2022-12-28T19:48:40.400Z,12.70
2022-12-28T19:51:07.982Z,14.90
2022-12-28T19:53:35.425Z,12.97
2022-12-28T19:56:05.114Z,20.30
2022-12-28T19:58:32.918Z,12.73
2022-12-28T20:01:05.227Z,15.30
2022-12-28T20:03:33.081Z,15.33
2022-12-28T20:06:21.903Z,15.13
2022-12-28T20:08:50.420Z,15.50
2022-12-28T20:11:18.961Z,17.47
2022-12-28T20:13:50.924Z,12.37
2022-12-28T20:16:18.904Z,13.73
2022-12-28T20:18:47.215Z,12.87
2022-12-28T20:21:19.988Z,13.73
2022-12-28T20:23:49.243Z,15.77
2022-12-28T20:26:18.079Z,13.00
2022-12-28T20:28:46.165Z,14.60
2022-12-28T20:31:15.316Z,11.30
2022-12-28T20:33:44.220Z,12.23
2022-12-28T20:36:13.645Z,12.20
2022-12-28T20:38:41.669Z,11.80
2022-12-28T20:41:49.478Z,13.97
2022-12-28T20:44:19.538Z,11.33
2022-12-28T20:46:47.474Z,11.93
2022-12-28T20:49:16.818Z,13.17
2022-12-28T20:51:47.247Z,12.53
2022-12-28T20:54:15.400Z,9.37
2022-12-28T20:56:46.841Z,12.37
2022-12-28T20:59:18.606Z,10.93
2022-12-28T21:01:46.838Z,13.60
2022-12-28T21:04:14.918Z,15.90
2022-12-28T21:06:42.821Z,13.33
2022-12-28T21:09:10.629Z,14.23
2022-12-28T21:11:38.752Z,13.00
2022-12-28T21:14:06.778Z,16.50
2022-12-28T21:16:34.768Z,14.50
2022-12-28T21:19:02.915Z,14.53
2022-12-28T21:21:30.643Z,15.97
2022-12-28T21:23:58.192Z,15.50
2022-12-28T21:26:26.025Z,17.27
2022-12-28T21:28:53.579Z,15.03
2022-12-28T21:31:21.057Z,16.03
2022-12-28T21:33:48.766Z,17.10
2022-12-28T21:36:18.059Z,16.70
2022-12-28T21:38:46.721Z,21.07
2022-12-28T21:41:15.630Z,15.03
2022-12-28T21:43:43.367Z,14.60
2022-12-28T21:46:13.574Z,15.47
2022-12-28T21:48:42.106Z,16.70
2022-12-28T21:51:38.009Z,13.47
2022-12-28T21:54:29.916Z,15.52
2022-12-28T21:56:58.002Z,16.63
2022-12-28T21:59:26.380Z,15.80
2022-12-28T22:02:14.176Z,16.63
2022-12-28T22:05:03.694Z,18.63
2022-12-28T22:07:32.353Z,16.00
2022-12-28T22:10:19.710Z,17.60
2022-12-28T22:12:47.405Z,19.63
2022-12-28T22:15:37.473Z,19.67
2022-12-28T22:18:06.517Z,20.23
2022-12-28T22:20:35.049Z,21.73
2022-12-28T22:23:02.883Z,22.00
2022-12-28T22:25:31.080Z,21.70
2022-12-28T22:27:59.524Z,20.57
2022-12-28T22:30:27.110Z,24.67
2022-12-28T22:32:59.717Z,22.63
2022-12-28T22:35:27.319Z,26.03
2022-12-28T22:37:54.783Z,22.60
2022-12-28T22:40:22.488Z,23.73
2022-12-28T22:42:50.993Z,29.07
2022-12-28T22:45:19.860Z,24.70
2022-12-28T22:47:47.802Z,29.60
2022-12-28T22:50:17.053Z,24.70
2022-12-28T22:52:44.664Z,26.47
2022-12-28T22:55:12.728Z,26.63
2022-12-28T22:57:40.393Z,28.30
2022-12-28T23:00:09.827Z,27.97
2022-12-28T23:02:37.843Z,27.83
2022-12-28T23:05:05.729Z,30.17
2022-12-28T23:07:34.436Z,27.80
2022-12-28T23:10:02.477Z,28.23
2022-12-28T23:12:30.599Z,26.00
2022-12-28T23:15:17.945Z,26.10
2022-12-28T23:17:46.151Z,25.57
2022-12-28T23:20:33.708Z,26.70
2022-12-28T23:23:21.188Z,31.70
2022-12-28T23:26:09.136Z,28.07
2022-12-28T23:28:37.189Z,25.83
2022-12-28T23:31:05.083Z,24.17
2022-12-28T23:33:33.617Z,22.43
2022-12-28T23:36:03.430Z,25.47
2022-12-28T23:38:33.039Z,26.20
2022-12-28T23:41:23.300Z,26.47
2022-12-28T23:43:53.279Z,24.73
2022-12-28T23:46:21.627Z,26.00
2022-12-28T23:48:49.941Z,25.57
2022-12-28T23:51:30.969Z,25.17
2022-12-28T23:53:59.504Z,25.13
2022-12-28T23:56:27.023Z,27.60
2022-12-28T23:58:55.766Z,23.43
